sensor_id;sensor_type;location;lat;lon;timestamp;temperature;humidity
69204;DHT22;56317;27.658;85.326;2022-09-14T00:01:28;19.50;99.90
69204;DHT22;56317;27.658;85.326;2022-09-14T00:03:58;19.50;99.90
69204;DHT22;56317;27.658;85.326;2022-09-14T00:06:26;19.50;99.90
69204;DHT22;56317;27.658;85.326;2022-09-14T00:08:54;19.60;99.90
69204;DHT22;56317;27.658;85.326;2022-09-14T00:11:23;19.60;99.90
69204;DHT22;56317;27.658;85.326;2022-09-14T00:13:51;19.60;99.90
69204;DHT22;56317;27.658;85.326;2022-09-14T00:16:24;19.60;99.90
69204;DHT22;56317;27.658;85.326;2022-09-14T00:18:53;19.60;99.90
69204;DHT22;56317;27.658;85.326;2022-09-14T00:21:22;19.70;99.90
69204;DHT22;56317;27.658;85.326;2022-09-14T00:23:49;19.80;99.90
69204;DHT22;56317;27.658;85.326;2022-09-14T00:26:19;19.80;99.90
69204;DHT22;56317;27.658;85.326;2022-09-14T00:28:49;19.90;99.90
69204;DHT22;56317;27.658;85.326;2022-09-14T00:31:17;20.00;99.90
69204;DHT22;56317;27.658;85.326;2022-09-14T00:33:46;20.10;99.90
69204;DHT22;56317;27.658;85.326;2022-09-14T00:36:16;20.10;99.90
69204;DHT22;56317;27.658;85.326;2022-09-14T00:38:45;20.20;99.90
69204;DHT22;56317;27.658;85.326;2022-09-14T00:41:18;20.30;99.90
69204;DHT22;56317;27.658;85.326;2022-09-14T00:43:57;20.30;99.90
69204;DHT22;56317;27.658;85.326;2022-09-14T00:46:27;20.40;99.90
69204;DHT22;56317;27.658;85.326;2022-09-14T00:48:58;20.40;99.90
69204;DHT22;56317;27.658;85.326;2022-09-14T00:51:25;20.50;99.90
69204;DHT22;56317;27.658;85.326;2022-09-14T00:53:53;20.50;99.90
69204;DHT22;56317;27.658;85.326;2022-09-14T00:56:21;20.60;99.90
69204;DHT22;56317;27.658;85.326;2022-09-14T00:58:50;20.60;99.90
69204;DHT22;56317;27.658;85.326;2022-09-14T01:01:18;20.50;99.90
69204;DHT22;56317;27.658;85.326;2022-09-14T01:03:45;20.50;99.90
69204;DHT22;56317;27.658;85.326;2022-09-14T01:06:37;20.50;99.90
69204;DHT22;56317;27.658;85.326;2022-09-14T01:12:04;20.50;99.90
69204;DHT22;56317;27.658;85.326;2022-09-14T01:15:04;20.60;99.90
69204;DHT22;56317;27.658;85.326;2022-09-14T01:17:40;20.70;99.90
69204;DHT22;56317;27.658;85.326;2022-09-14T01:20:14;20.80;99.90
69204;DHT22;56317;27.658;85.326;2022-09-14T01:27:55;21.10;99.90
69204;DHT22;56317;27.658;85.326;2022-09-14T01:30:27;21.20;99.90
69204;DHT22;56317;27.658;85.326;2022-09-14T01:33:20;21.30;99.90
69204;DHT22;56317;27.658;85.326;2022-09-14T01:35:57;21.40;99.90
69204;DHT22;56317;27.658;85.326;2022-09-14T01:38:36;21.50;99.90
69204;DHT22;56317;27.658;85.326;2022-09-14T01:41:08;21.60;99.90
69204;DHT22;56317;27.658;85.326;2022-09-14T01:43:42;21.60;99.90
69204;DHT22;56317;27.658;85.326;2022-09-14T01:46:16;21.50;99.90
69204;DHT22;56317;27.658;85.326;2022-09-14T01:52:03;21.60;99.90
69204;DHT22;56317;27.658;85.326;2022-09-14T01:54:30;21.70;99.90
69204;DHT22;56317;27.658;85.326;2022-09-14T01:59:47;22.20;99.90
69204;DHT22;56317;27.658;85.326;2022-09-14T02:02:23;22.20;99.90
69204;DHT22;56317;27.658;85.326;2022-09-14T02:07:56;22.40;99.90
69204;DHT22;56317;27.658;85.326;2022-09-14T02:10:24;22.60;99.90
69204;DHT22;56317;27.658;85.326;2022-09-14T02:12:52;22.90;99.90
69204;DHT22;56317;27.658;85.326;2022-09-14T02:15:21;23.30;99.90
69204;DHT22;56317;27.658;85.326;2022-09-14T02:17:49;23.70;99.90
69204;DHT22;56317;27.658;85.326;2022-09-14T02:23:38;24.20;99.90
69204;DHT22;56317;27.658;85.326;2022-09-14T02:26:05;24.00;99.90
69204;DHT22;56317;27.658;85.326;2022-09-14T02:28:33;24.00;99.90
69204;DHT22;56317;27.658;85.326;2022-09-14T02:34:30;23.90;99.90
69204;DHT22;56317;27.658;85.326;2022-09-14T02:37:23;24.20;99.90
69204;DHT22;56317;27.658;85.326;2022-09-14T02:45:42;24.50;99.90
69204;DHT22;56317;27.658;85.326;2022-09-14T02:48:30;24.70;99.90
69204;DHT22;56317;27.658;85.326;2022-09-14T02:51:05;24.90;99.90
69204;DHT22;56317;27.658;85.326;2022-09-14T02:53:53;24.90;99.90
69204;DHT22;56317;27.658;85.326;2022-09-14T02:56:24;25.00;99.90
69204;DHT22;56317;27.658;85.326;2022-09-14T02:58:52;25.20;99.90
69204;DHT22;56317;27.658;85.326;2022-09-14T03:01:21;25.40;99.90
69204;DHT22;56317;27.658;85.326;2022-09-14T03:03:49;25.80;99.90
69204;DHT22;56317;27.658;85.326;2022-09-14T03:06:17;26.10;99.90
69204;DHT22;56317;27.658;85.326;2022-09-14T03:08:44;26.30;99.90
69204;DHT22;56317;27.658;85.326;2022-09-14T03:11:12;26.70;99.90
69204;DHT22;56317;27.658;85.326;2022-09-14T03:13:39;27.20;99.90
69204;DHT22;56317;27.658;85.326;2022-09-14T03:16:09;27.60;98.40
69204;DHT22;56317;27.658;85.326;2022-09-14T03:18:37;28.00;97.90
69204;DHT22;56317;27.658;85.326;2022-09-14T03:21:13;28.20;95.90
69204;DHT22;56317;27.658;85.326;2022-09-14T03:23:47;28.40;95.80
69204;DHT22;56317;27.658;85.326;2022-09-14T03:26:17;28.70;95.70
69204;DHT22;56317;27.658;85.326;2022-09-14T03:28:52;29.20;94.30
69204;DHT22;56317;27.658;85.326;2022-09-14T03:31:20;29.60;92.20
69204;DHT22;56317;27.658;85.326;2022-09-14T03:33:53;30.00;91.20
69204;DHT22;56317;27.658;85.326;2022-09-14T03:36:25;30.10;90.70
69204;DHT22;56317;27.658;85.326;2022-09-14T03:38:54;30.30;90.10
69204;DHT22;56317;27.658;85.326;2022-09-14T03:41:22;30.40;87.90
69204;DHT22;56317;27.658;85.326;2022-09-14T03:43:53;30.20;87.00
69204;DHT22;56317;27.658;85.326;2022-09-14T03:46:22;30.20;86.60
69204;DHT22;56317;27.658;85.326;2022-09-14T03:48:50;30.30;84.90
69204;DHT22;56317;27.658;85.326;2022-09-14T03:51:18;30.30;86.80
69204;DHT22;56317;27.658;85.326;2022-09-14T03:53:45;30.40;85.40
69204;DHT22;56317;27.658;85.326;2022-09-14T03:56:16;30.50;85.10
69204;DHT22;56317;27.658;85.326;2022-09-14T03:58:46;30.70;83.90
69204;DHT22;56317;27.658;85.326;2022-09-14T04:01:15;30.90;83.70
69204;DHT22;56317;27.658;85.326;2022-09-14T04:03:43;31.10;83.40
69204;DHT22;56317;27.658;85.326;2022-09-14T04:06:11;31.30;81.50
69204;DHT22;56317;27.658;85.326;2022-09-14T04:08:41;31.40;81.20
69204;DHT22;56317;27.658;85.326;2022-09-14T04:11:17;31.30;79.60
69204;DHT22;56317;27.658;85.326;2022-09-14T04:13:45;30.90;81.00
69204;DHT22;56317;27.658;85.326;2022-09-14T04:16:13;30.80;81.00
69204;DHT22;56317;27.658;85.326;2022-09-14T04:18:41;31.20;80.40
69204;DHT22;56317;27.658;85.326;2022-09-14T04:21:17;31.60;79.10
69204;DHT22;56317;27.658;85.326;2022-09-14T04:23:45;31.90;77.50
69204;DHT22;56317;27.658;85.326;2022-09-14T04:26:16;32.30;76.30
69204;DHT22;56317;27.658;85.326;2022-09-14T04:28:44;32.50;76.10
69204;DHT22;56317;27.658;85.326;2022-09-14T04:31:12;32.60;74.70
69204;DHT22;56317;27.658;85.326;2022-09-14T04:33:41;32.70;73.80
69204;DHT22;56317;27.658;85.326;2022-09-14T04:36:14;32.60;73.90
69204;DHT22;56317;27.658;85.326;2022-09-14T04:38:42;32.30;74.00
69204;DHT22;56317;27.658;85.326;2022-09-14T04:41:18;32.10;73.80
69204;DHT22;56317;27.658;85.326;2022-09-14T04:43:52;32.00;74.00
69204;DHT22;56317;27.658;85.326;2022-09-14T04:46:22;31.80;73.80
69204;DHT22;56317;27.658;85.326;2022-09-14T04:48:50;32.20;74.70
69204;DHT22;56317;27.658;85.326;2022-09-14T04:51:22;32.90;73.00
69204;DHT22;56317;27.658;85.326;2022-09-14T04:53:52;33.50;70.40
69204;DHT22;56317;27.658;85.326;2022-09-14T04:56:21;33.60;69.30
69204;DHT22;56317;27.658;85.326;2022-09-14T04:58:53;33.30;69.60
69204;DHT22;56317;27.658;85.326;2022-09-14T05:01:32;33.40;70.50
69204;DHT22;56317;27.658;85.326;2022-09-14T05:04:00;33.80;69.80
69204;DHT22;56317;27.658;85.326;2022-09-14T05:06:30;34.30;68.90
69204;DHT22;56317;27.658;85.326;2022-09-14T05:08:58;34.70;66.60
69204;DHT22;56317;27.658;85.326;2022-09-14T05:11:28;34.20;66.20
69204;DHT22;56317;27.658;85.326;2022-09-14T05:13:57;33.30;67.40
69204;DHT22;56317;27.658;85.326;2022-09-14T05:16:29;32.30;68.80
69204;DHT22;56317;27.658;85.326;2022-09-14T05:18:59;31.50;70.70
69204;DHT22;56317;27.658;85.326;2022-09-14T05:21:28;31.00;72.00
69204;DHT22;56317;27.658;85.326;2022-09-14T05:24:04;30.60;73.50
69204;DHT22;56317;27.658;85.326;2022-09-14T05:26:33;30.40;75.30
69204;DHT22;56317;27.658;85.326;2022-09-14T05:29:01;30.20;76.30
69204;DHT22;56317;27.658;85.326;2022-09-14T05:31:30;30.10;76.50
69204;DHT22;56317;27.658;85.326;2022-09-14T05:34:00;30.00;76.50
69204;DHT22;56317;27.658;85.326;2022-09-14T05:36:27;29.60;77.50
69204;DHT22;56317;27.658;85.326;2022-09-14T05:38:55;29.20;79.10
69204;DHT22;56317;27.658;85.326;2022-09-14T05:41:26;29.00;79.60
69204;DHT22;56317;27.658;85.326;2022-09-14T05:43:53;28.50;80.20
69204;DHT22;56317;27.658;85.326;2022-09-14T05:46:20;28.10;81.80
69204;DHT22;56317;27.658;85.326;2022-09-14T05:48:51;27.90;82.80
69204;DHT22;56317;27.658;85.326;2022-09-14T05:51:22;27.90;83.30
69204;DHT22;56317;27.658;85.326;2022-09-14T05:53:55;28.00;84.60
69204;DHT22;56317;27.658;85.326;2022-09-14T05:56:24;28.10;84.10
69204;DHT22;56317;27.658;85.326;2022-09-14T05:58:52;28.10;83.80
69204;DHT22;56317;27.658;85.326;2022-09-14T06:01:22;28.20;84.70
69204;DHT22;56317;27.658;85.326;2022-09-14T06:03:52;28.10;82.80
69204;DHT22;56317;27.658;85.326;2022-09-14T06:06:21;27.90;84.00
69204;DHT22;56317;27.658;85.326;2022-09-14T06:08:49;27.70;85.20
69204;DHT22;56317;27.658;85.326;2022-09-14T06:11:20;27.70;85.30
69204;DHT22;56317;27.658;85.326;2022-09-14T06:13:47;27.90;85.50
69204;DHT22;56317;27.658;85.326;2022-09-14T06:16:17;28.20;85.30
69204;DHT22;56317;27.658;85.326;2022-09-14T06:18:46;28.20;84.70
69204;DHT22;56317;27.658;85.326;2022-09-14T06:21:16;28.00;84.80
69204;DHT22;56317;27.658;85.326;2022-09-14T06:23:45;27.90;85.50
69204;DHT22;56317;27.658;85.326;2022-09-14T06:26:13;28.40;86.00
69204;DHT22;56317;27.658;85.326;2022-09-14T06:28:41;28.90;83.80
69204;DHT22;56317;27.658;85.326;2022-09-14T06:31:11;28.40;85.30
69204;DHT22;56317;27.658;85.326;2022-09-14T06:33:43;27.90;85.00
69204;DHT22;56317;27.658;85.326;2022-09-14T06:36:12;27.90;86.60
69204;DHT22;56317;27.658;85.326;2022-09-14T06:38:40;28.60;85.70
69204;DHT22;56317;27.658;85.326;2022-09-14T06:41:11;29.30;83.90
69204;DHT22;56317;27.658;85.326;2022-09-14T06:43:40;29.10;82.70
69204;DHT22;56317;27.658;85.326;2022-09-14T06:46:10;28.40;83.20
69204;DHT22;56317;27.658;85.326;2022-09-14T06:48:46;27.70;85.40
69204;DHT22;56317;27.658;85.326;2022-09-14T06:51:19;27.00;87.50
69204;DHT22;56317;27.658;85.326;2022-09-14T06:53:48;26.30;89.70
69204;DHT22;56317;27.658;85.326;2022-09-14T06:56:16;25.80;90.90
69204;DHT22;56317;27.658;85.326;2022-09-14T06:58:44;25.40;91.50
69204;DHT22;56317;27.658;85.326;2022-09-14T07:01:13;25.20;92.10
69204;DHT22;56317;27.658;85.326;2022-09-14T07:03:42;24.90;93.10
69204;DHT22;56317;27.658;85.326;2022-09-14T07:06:18;24.70;93.60
69204;DHT22;56317;27.658;85.326;2022-09-14T07:08:47;24.70;94.20
69204;DHT22;56317;27.658;85.326;2022-09-14T07:11:17;24.80;94.40
69204;DHT22;56317;27.658;85.326;2022-09-14T07:13:46;24.90;94.20
69204;DHT22;56317;27.658;85.326;2022-09-14T07:16:14;25.20;94.10
69204;DHT22;56317;27.658;85.326;2022-09-14T07:18:41;25.30;93.80
69204;DHT22;56317;27.658;85.326;2022-09-14T07:21:11;25.50;93.70
69204;DHT22;56317;27.658;85.326;2022-09-14T07:23:47;25.40;93.40
69204;DHT22;56317;27.658;85.326;2022-09-14T07:26:19;25.20;93.90
69204;DHT22;56317;27.658;85.326;2022-09-14T07:28:50;25.10;94.70
69204;DHT22;56317;27.658;85.326;2022-09-14T07:31:24;25.00;95.50
69204;DHT22;56317;27.658;85.326;2022-09-14T07:33:56;25.20;95.70
69204;DHT22;56317;27.658;85.326;2022-09-14T07:36:25;25.20;95.60
69204;DHT22;56317;27.658;85.326;2022-09-14T07:38:53;25.20;95.60
69204;DHT22;56317;27.658;85.326;2022-09-14T07:41:23;25.30;95.80
69204;DHT22;56317;27.658;85.326;2022-09-14T07:43:52;25.40;95.60
69204;DHT22;56317;27.658;85.326;2022-09-14T07:46:21;25.50;95.50
69204;DHT22;56317;27.658;85.326;2022-09-14T07:48:53;25.50;95.40
69204;DHT22;56317;27.658;85.326;2022-09-14T07:51:21;25.30;95.30
69204;DHT22;56317;27.658;85.326;2022-09-14T07:53:49;25.30;95.50
69204;DHT22;56317;27.658;85.326;2022-09-14T07:56:17;25.50;95.50
69204;DHT22;56317;27.658;85.326;2022-09-14T07:58:45;25.80;95.00
69204;DHT22;56317;27.658;85.326;2022-09-14T08:01:14;26.30;94.70
69204;DHT22;56317;27.658;85.326;2022-09-14T08:03:44;26.60;93.90
69204;DHT22;56317;27.658;85.326;2022-09-14T08:06:18;27.20;93.40
69204;DHT22;56317;27.658;85.326;2022-09-14T08:08:50;27.70;92.70
69204;DHT22;56317;27.658;85.326;2022-09-14T08:13:53;28.20;91.40
69204;DHT22;56317;27.658;85.326;2022-09-14T08:16:22;28.50;91.00
69204;DHT22;56317;27.658;85.326;2022-09-14T08:18:54;28.50;89.90
69204;DHT22;56317;27.658;85.326;2022-09-14T08:21:22;28.40;90.00
69204;DHT22;56317;27.658;85.326;2022-09-14T08:23:50;29.20;89.40
69204;DHT22;56317;27.658;85.326;2022-09-14T08:26:22;30.50;86.40
69204;DHT22;56317;27.658;85.326;2022-09-14T08:28:50;35.30;82.30
69204;DHT22;56317;27.658;85.326;2022-09-14T08:31:22;39.50;66.20
69204;DHT22;56317;27.658;85.326;2022-09-14T08:33:59;39.60;60.90
69204;DHT22;56317;27.658;85.326;2022-09-14T08:36:31;41.80;58.00
69204;DHT22;56317;27.658;85.326;2022-09-14T08:38:58;42.30;56.30
69204;DHT22;56317;27.658;85.326;2022-09-14T08:41:50;41.40;54.20
69204;DHT22;56317;27.658;85.326;2022-09-14T08:47:02;44.00;52.00
69204;DHT22;56317;27.658;85.326;2022-09-14T08:49:45;42.00;51.40
69204;DHT22;56317;27.658;85.326;2022-09-14T08:52:53;40.10;53.40
69204;DHT22;56317;27.658;85.326;2022-09-14T09:11:48;32.30;68.70
69204;DHT22;56317;27.658;85.326;2022-09-14T09:17:42;30.10;71.70
69204;DHT22;56317;27.658;85.326;2022-09-14T09:20:32;28.90;75.30
69204;DHT22;56317;27.658;85.326;2022-09-14T09:23:15;28.40;78.80
69204;DHT22;56317;27.658;85.326;2022-09-14T09:28:20;27.80;81.60
69204;DHT22;56317;27.658;85.326;2022-09-14T09:30:48;27.40;82.60
69204;DHT22;56317;27.658;85.326;2022-09-14T09:33:20;26.70;86.40
69204;DHT22;56317;27.658;85.326;2022-09-14T09:35:50;25.90;89.00
69204;DHT22;56317;27.658;85.326;2022-09-14T09:38:20;25.40;90.50
69204;DHT22;56317;27.658;85.326;2022-09-14T09:41:23;25.00;91.30
69204;DHT22;56317;27.658;85.326;2022-09-14T09:46:30;24.60;93.10
69204;DHT22;56317;27.658;85.326;2022-09-14T09:49:01;24.50;93.50
69204;DHT22;56317;27.658;85.326;2022-09-14T09:51:30;24.80;94.10
69204;DHT22;56317;27.658;85.326;2022-09-14T09:59:43;26.30;92.70
69204;DHT22;56317;27.658;85.326;2022-09-14T10:04:58;28.90;90.00
69204;DHT22;56317;27.658;85.326;2022-09-14T10:07:28;30.90;84.20
69204;DHT22;56317;27.658;85.326;2022-09-14T10:10:15;31.90;79.20
69204;DHT22;56317;27.658;85.326;2022-09-14T10:12:53;31.10;77.20
69204;DHT22;56317;27.658;85.326;2022-09-14T10:15:29;30.10;79.30
69204;DHT22;56317;27.658;85.326;2022-09-14T10:25:50;29.40;83.30
69204;DHT22;56317;27.658;85.326;2022-09-14T10:28:29;29.90;82.30
69204;DHT22;56317;27.658;85.326;2022-09-14T10:31:01;32.00;80.00
69204;DHT22;56317;27.658;85.326;2022-09-14T10:33:33;34.20;74.90
69204;DHT22;56317;27.658;85.326;2022-09-14T10:38:50;39.10;61.00
69204;DHT22;56317;27.658;85.326;2022-09-14T10:47:02;35.90;60.40
69204;DHT22;56317;27.658;85.326;2022-09-14T11:00:18;29.60;74.30
69204;DHT22;56317;27.658;85.326;2022-09-14T11:06:10;28.90;80.90
69204;DHT22;56317;27.658;85.326;2022-09-14T11:08:56;31.30;76.60
69204;DHT22;56317;27.658;85.326;2022-09-14T11:25:59;33.60;65.70
69204;DHT22;56317;27.658;85.326;2022-09-14T11:28:41;31.80;68.50
69204;DHT22;56317;27.658;85.326;2022-09-14T11:31:28;30.10;71.70
69204;DHT22;56317;27.658;85.326;2022-09-14T11:34:16;28.80;74.90
69204;DHT22;56317;27.658;85.326;2022-09-14T11:36:49;27.90;78.70
69204;DHT22;56317;27.658;85.326;2022-09-14T11:39:29;27.00;81.50
69204;DHT22;56317;27.658;85.326;2022-09-14T11:42:01;26.20;83.20
69204;DHT22;56317;27.658;85.326;2022-09-14T11:44:38;25.60;86.00
69204;DHT22;56317;27.658;85.326;2022-09-14T11:52:42;24.20;91.20
69204;DHT22;56317;27.658;85.326;2022-09-14T11:55:15;23.80;91.60
69204;DHT22;56317;27.658;85.326;2022-09-14T11:57:46;23.40;92.50
69204;DHT22;56317;27.658;85.326;2022-09-14T12:05:40;22.80;94.10
69204;DHT22;56317;27.658;85.326;2022-09-14T12:11:22;22.60;95.60
69204;DHT22;56317;27.658;85.326;2022-09-14T12:17:24;22.30;97.00
69204;DHT22;56317;27.658;85.326;2022-09-14T12:19:51;22.20;96.80
69204;DHT22;56317;27.658;85.326;2022-09-14T12:22:37;22.10;98.60
69204;DHT22;56317;27.658;85.326;2022-09-14T12:27:39;22.00;99.20
69204;DHT22;56317;27.658;85.326;2022-09-14T12:33:00;21.90;99.90
69204;DHT22;56317;27.658;85.326;2022-09-14T12:35:43;21.80;99.90
69204;DHT22;56317;27.658;85.326;2022-09-14T13:04:22;21.60;99.90
69204;DHT22;56317;27.658;85.326;2022-09-14T13:06:51;21.70;99.90
69204;DHT22;56317;27.658;85.326;2022-09-14T13:09:24;21.70;99.90
69204;DHT22;56317;27.658;85.326;2022-09-14T13:12:11;21.70;99.90
69204;DHT22;56317;27.658;85.326;2022-09-14T13:14:54;21.80;99.90
69204;DHT22;56317;27.658;85.326;2022-09-14T13:17:22;21.80;99.90
69204;DHT22;56317;27.658;85.326;2022-09-14T13:20:00;21.80;99.90
69204;DHT22;56317;27.658;85.326;2022-09-14T13:22:32;21.80;99.90
69204;DHT22;56317;27.658;85.326;2022-09-14T13:25:00;21.80;99.90
69204;DHT22;56317;27.658;85.326;2022-09-14T13:27:28;21.70;99.90
69204;DHT22;56317;27.658;85.326;2022-09-14T13:30:18;21.70;99.90
69204;DHT22;56317;27.658;85.326;2022-09-14T13:32:48;21.70;99.90
69204;DHT22;56317;27.658;85.326;2022-09-14T13:35:42;21.70;99.90
69204;DHT22;56317;27.658;85.326;2022-09-14T13:38:25;21.70;99.90
69204;DHT22;56317;27.658;85.326;2022-09-14T13:40:55;21.60;99.90
69204;DHT22;56317;27.658;85.326;2022-09-14T13:43:28;21.70;99.90
69204;DHT22;56317;27.658;85.326;2022-09-14T13:45:56;21.60;99.90
69204;DHT22;56317;27.658;85.326;2022-09-14T13:48:24;21.60;99.90
69204;DHT22;56317;27.658;85.326;2022-09-14T13:50:51;21.60;99.90
69204;DHT22;56317;27.658;85.326;2022-09-14T13:53:45;21.60;99.90
69204;DHT22;56317;27.658;85.326;2022-09-14T13:56:21;21.40;99.90
69204;DHT22;56317;27.658;85.326;2022-09-14T13:59:12;21.20;99.90
69204;DHT22;56317;27.658;85.326;2022-09-14T14:04:33;21.00;99.90
69204;DHT22;56317;27.658;85.326;2022-09-14T14:07:16;20.90;99.90
69204;DHT22;56317;27.658;85.326;2022-09-14T14:09:55;20.80;99.90
69204;DHT22;56317;27.658;85.326;2022-09-14T14:17:39;20.60;99.90
69204;DHT22;56317;27.658;85.326;2022-09-14T14:25:54;20.40;99.90
69204;DHT22;56317;27.658;85.326;2022-09-14T14:28:32;20.40;99.90
69204;DHT22;56317;27.658;85.326;2022-09-14T14:31:01;20.30;99.90
69204;DHT22;56317;27.658;85.326;2022-09-14T14:33:30;20.30;99.90
69204;DHT22;56317;27.658;85.326;2022-09-14T14:35:57;20.30;99.90
69204;DHT22;56317;27.658;85.326;2022-09-14T14:38:25;20.20;99.90
69204;DHT22;56317;27.658;85.326;2022-09-14T14:40:54;20.20;99.90
69204;DHT22;56317;27.658;85.326;2022-09-14T14:43:25;20.20;99.90
69204;DHT22;56317;27.658;85.326;2022-09-14T14:46:02;20.20;99.90
69204;DHT22;56317;27.658;85.326;2022-09-14T14:48:31;20.10;99.90
69204;DHT22;56317;27.658;85.326;2022-09-14T14:50:59;20.00;99.90
69204;DHT22;56317;27.658;85.326;2022-09-14T14:53:27;20.00;99.90
69204;DHT22;56317;27.658;85.326;2022-09-14T14:55:54;19.90;99.90
69204;DHT22;56317;27.658;85.326;2022-09-14T14:58:22;19.90;99.90
69204;DHT22;56317;27.658;85.326;2022-09-14T15:00:50;19.90;99.90
69204;DHT22;56317;27.658;85.326;2022-09-14T15:03:17;19.80;99.90
69204;DHT22;56317;27.658;85.326;2022-09-14T15:05:45;19.80;99.90
69204;DHT22;56317;27.658;85.326;2022-09-14T15:08:15;19.80;99.90
69204;DHT22;56317;27.658;85.326;2022-09-14T15:10:43;19.80;99.90
69204;DHT22;56317;27.658;85.326;2022-09-14T15:13:10;19.70;99.90
69204;DHT22;56317;27.658;85.326;2022-09-14T15:15:39;19.70;99.90
69204;DHT22;56317;27.658;85.326;2022-09-14T15:18:10;19.70;99.90
69204;DHT22;56317;27.658;85.326;2022-09-14T15:20:37;19.70;99.90
69204;DHT22;56317;27.658;85.326;2022-09-14T15:23:04;19.70;99.90
69204;DHT22;56317;27.658;85.326;2022-09-14T15:25:32;19.60;99.90
69204;DHT22;56317;27.658;85.326;2022-09-14T15:27:59;19.60;99.90
69204;DHT22;56317;27.658;85.326;2022-09-14T15:30:26;19.60;99.90
69204;DHT22;56317;27.658;85.326;2022-09-14T15:32:53;19.60;99.90
69204;DHT22;56317;27.658;85.326;2022-09-14T15:35:21;19.60;99.90
69204;DHT22;56317;27.658;85.326;2022-09-14T15:37:48;19.60;99.90
69204;DHT22;56317;27.658;85.326;2022-09-14T15:40:15;19.60;99.90
69204;DHT22;56317;27.658;85.326;2022-09-14T15:42:42;19.70;99.90
69204;DHT22;56317;27.658;85.326;2022-09-14T15:45:10;19.70;99.90
69204;DHT22;56317;27.658;85.326;2022-09-14T15:47:41;19.80;99.90
69204;DHT22;56317;27.658;85.326;2022-09-14T15:50:08;19.80;99.90
69204;DHT22;56317;27.658;85.326;2022-09-14T15:52:37;19.80;99.90
69204;DHT22;56317;27.658;85.326;2022-09-14T15:55:06;19.80;99.90
69204;DHT22;56317;27.658;85.326;2022-09-14T15:57:34;19.80;99.90
69204;DHT22;56317;27.658;85.326;2022-09-14T16:00:03;19.80;99.90
69204;DHT22;56317;27.658;85.326;2022-09-14T16:02:30;19.80;99.90
69204;DHT22;56317;27.658;85.326;2022-09-14T16:04:57;19.80;99.90
69204;DHT22;56317;27.658;85.326;2022-09-14T16:07:25;19.80;99.90
69204;DHT22;56317;27.658;85.326;2022-09-14T16:09:54;19.80;99.90
69204;DHT22;56317;27.658;85.326;2022-09-14T16:12:21;19.80;99.90
69204;DHT22;56317;27.658;85.326;2022-09-14T16:14:49;19.80;99.90
69204;DHT22;56317;27.658;85.326;2022-09-14T16:17:16;19.80;99.90
69204;DHT22;56317;27.658;85.326;2022-09-14T16:19:43;19.80;99.90
69204;DHT22;56317;27.658;85.326;2022-09-14T16:22:10;19.80;99.90
69204;DHT22;56317;27.658;85.326;2022-09-14T16:24:37;19.80;99.90
69204;DHT22;56317;27.658;85.326;2022-09-14T16:27:05;19.80;99.90
69204;DHT22;56317;27.658;85.326;2022-09-14T16:29:32;19.80;99.90
69204;DHT22;56317;27.658;85.326;2022-09-14T16:31:59;19.70;99.90
69204;DHT22;56317;27.658;85.326;2022-09-14T16:34:28;19.70;99.90
69204;DHT22;56317;27.658;85.326;2022-09-14T16:36:56;19.70;99.90
69204;DHT22;56317;27.658;85.326;2022-09-14T16:39:25;19.70;99.90
69204;DHT22;56317;27.658;85.326;2022-09-14T16:41:54;19.80;99.90
69204;DHT22;56317;27.658;85.326;2022-09-14T16:44:23;19.80;99.90
69204;DHT22;56317;27.658;85.326;2022-09-14T16:46:53;19.80;99.90
69204;DHT22;56317;27.658;85.326;2022-09-14T16:49:21;19.70;99.90
69204;DHT22;56317;27.658;85.326;2022-09-14T16:51:48;19.70;99.90
69204;DHT22;56317;27.658;85.326;2022-09-14T16:54:20;19.70;99.90
69204;DHT22;56317;27.658;85.326;2022-09-14T16:56:48;19.70;99.90
69204;DHT22;56317;27.658;85.326;2022-09-14T16:59:16;19.70;99.90
69204;DHT22;56317;27.658;85.326;2022-09-14T17:01:45;19.70;99.90
69204;DHT22;56317;27.658;85.326;2022-09-14T17:04:16;19.70;99.90
69204;DHT22;56317;27.658;85.326;2022-09-14T17:06:47;19.70;99.90
69204;DHT22;56317;27.658;85.326;2022-09-14T17:09:18;19.70;99.90
69204;DHT22;56317;27.658;85.326;2022-09-14T17:11:46;19.70;99.90
69204;DHT22;56317;27.658;85.326;2022-09-14T17:14:16;19.80;99.90
69204;DHT22;56317;27.658;85.326;2022-09-14T17:16:43;19.80;99.90
69204;DHT22;56317;27.658;85.326;2022-09-14T17:19:11;19.80;99.90
69204;DHT22;56317;27.658;85.326;2022-09-14T17:21:40;19.80;99.90
69204;DHT22;56317;27.658;85.326;2022-09-14T17:24:08;19.80;99.90
69204;DHT22;56317;27.658;85.326;2022-09-14T17:26:36;19.80;99.90
69204;DHT22;56317;27.658;85.326;2022-09-14T17:29:04;19.90;99.90
69204;DHT22;56317;27.658;85.326;2022-09-14T17:31:34;19.90;99.90
69204;DHT22;56317;27.658;85.326;2022-09-14T17:34:04;20.00;99.90
69204;DHT22;56317;27.658;85.326;2022-09-14T17:36:31;20.00;99.90
69204;DHT22;56317;27.658;85.326;2022-09-14T17:39:02;20.00;99.90
69204;DHT22;56317;27.658;85.326;2022-09-14T17:41:30;20.00;99.90
69204;DHT22;56317;27.658;85.326;2022-09-14T17:44:03;20.10;99.90
69204;DHT22;56317;27.658;85.326;2022-09-14T17:46:31;20.10;99.90
69204;DHT22;56317;27.658;85.326;2022-09-14T17:48:59;20.10;99.90
69204;DHT22;56317;27.658;85.326;2022-09-14T17:51:29;20.10;99.90
69204;DHT22;56317;27.658;85.326;2022-09-14T17:53:59;20.20;99.90
69204;DHT22;56317;27.658;85.326;2022-09-14T17:56:27;20.20;99.90
69204;DHT22;56317;27.658;85.326;2022-09-14T17:59:03;20.10;99.90
69204;DHT22;56317;27.658;85.326;2022-09-14T18:01:31;20.10;99.90
69204;DHT22;56317;27.658;85.326;2022-09-14T18:04:04;20.10;99.90
69204;DHT22;56317;27.658;85.326;2022-09-14T18:06:34;20.10;99.90
69204;DHT22;56317;27.658;85.326;2022-09-14T18:09:08;20.10;99.90
69204;DHT22;56317;27.658;85.326;2022-09-14T18:11:36;20.10;99.90
69204;DHT22;56317;27.658;85.326;2022-09-14T18:14:04;20.20;99.90
69204;DHT22;56317;27.658;85.326;2022-09-14T18:16:32;20.10;99.90
69204;DHT22;56317;27.658;85.326;2022-09-14T18:19:00;20.20;99.90
69204;DHT22;56317;27.658;85.326;2022-09-14T18:21:27;20.10;99.90
69204;DHT22;56317;27.658;85.326;2022-09-14T18:23:55;20.20;99.90
69204;DHT22;56317;27.658;85.326;2022-09-14T18:26:23;20.10;99.90
69204;DHT22;56317;27.658;85.326;2022-09-14T18:28:53;20.10;99.90
69204;DHT22;56317;27.658;85.326;2022-09-14T18:31:22;20.10;99.90
69204;DHT22;56317;27.658;85.326;2022-09-14T18:33:53;20.10;99.90
69204;DHT22;56317;27.658;85.326;2022-09-14T18:36:21;20.10;99.90